createdAt,value
2023-03-02T00:01:03.741Z,1.82
2023-03-02T00:03:30.758Z,1.77
2023-03-02T00:05:57.699Z,1.78
2023-03-02T00:08:24.187Z,1.82
2023-03-02T00:10:50.663Z,1.86
2023-03-02T00:13:17.158Z,1.80
2023-03-02T00:15:43.659Z,1.75
2023-03-02T00:18:10.130Z,1.71
2023-03-02T00:20:36.733Z,1.77
2023-03-02T00:23:03.135Z,1.79
2023-03-02T00:25:29.549Z,1.83
2023-03-02T00:27:56.050Z,1.80
2023-03-02T00:30:22.728Z,1.82
2023-03-02T00:32:49.222Z,1.76
2023-03-02T00:35:15.843Z,1.80
2023-03-02T00:37:42.340Z,1.76
2023-03-02T00:40:09.903Z,1.82
2023-03-02T00:42:37.154Z,1.86
2023-03-02T00:45:05.455Z,1.78
2023-03-02T00:47:35.843Z,1.76
2023-03-02T00:50:03.584Z,1.83
2023-03-02T00:52:30.992Z,1.83
2023-03-02T00:54:57.848Z,1.83
2023-03-02T00:57:24.726Z,1.87
2023-03-02T00:59:51.219Z,1.82
2023-03-02T01:02:17.846Z,1.85
2023-03-02T01:04:44.825Z,1.89
2023-03-02T01:07:15.849Z,1.85
2023-03-02T01:09:44.190Z,1.85
2023-03-02T01:12:11.321Z,1.83
2023-03-02T01:14:39.643Z,1.76
2023-03-02T01:17:07.043Z,1.79
2023-03-02T01:19:33.477Z,1.78
2023-03-02T01:22:00.007Z,1.75
2023-03-02T01:24:26.950Z,1.77
2023-03-02T01:26:53.393Z,1.80
2023-03-02T01:29:19.900Z,1.83
2023-03-02T01:31:46.384Z,1.79
2023-03-02T01:34:12.815Z,1.78
2023-03-02T01:36:39.443Z,1.82
2023-03-02T01:39:05.898Z,1.77
2023-03-02T01:41:32.338Z,1.79
2023-03-02T01:43:58.842Z,1.80
2023-03-02T01:46:27.303Z,1.75
2023-03-02T01:49:01.433Z,1.82
2023-03-02T01:51:28.988Z,1.76
2023-03-02T01:54:00.893Z,1.77
2023-03-02T01:56:31.670Z,1.73
2023-03-02T01:59:03.920Z,1.72
2023-03-02T02:01:32.529Z,1.77
2023-03-02T02:03:58.997Z,1.72
2023-03-02T02:06:31.666Z,1.74
2023-03-02T02:08:58.770Z,1.70
2023-03-02T02:11:25.674Z,1.65
2023-03-02T02:13:56.726Z,1.65
2023-03-02T02:16:23.363Z,1.69
2023-03-02T02:18:49.949Z,1.72
2023-03-02T02:21:16.500Z,1.65
2023-03-02T02:24:03.371Z,1.67
2023-03-02T02:26:41.765Z,1.70
2023-03-02T02:29:22.781Z,1.66
2023-03-02T02:31:55.340Z,1.70
2023-03-02T02:34:25.542Z,1.71
2023-03-02T02:36:56.179Z,1.58
2023-03-02T02:39:28.995Z,1.60
2023-03-02T02:41:58.454Z,1.57
2023-03-02T02:44:25.042Z,1.57
2023-03-02T02:46:51.515Z,1.58
2023-03-02T02:49:38.565Z,1.62
2023-03-02T02:52:05.994Z,1.51
2023-03-02T02:54:33.332Z,1.56
2023-03-02T02:57:01.862Z,1.48
2023-03-02T02:59:33.520Z,1.59
2023-03-02T03:02:00.038Z,1.43
2023-03-02T03:04:29.129Z,1.46
2023-03-02T03:07:01.267Z,1.36
2023-03-02T03:09:28.608Z,1.47
2023-03-02T03:11:57.451Z,1.44
2023-03-02T03:14:29.961Z,1.43
2023-03-02T03:16:56.617Z,1.39
2023-03-02T03:19:32.819Z,1.37
2023-03-02T03:22:01.235Z,1.30
2023-03-02T03:24:29.658Z,1.39
2023-03-02T03:26:56.764Z,1.29
2023-03-02T03:29:24.892Z,1.29
2023-03-02T03:31:52.618Z,1.30
2023-03-02T03:34:19.661Z,1.36
2023-03-02T03:36:47.747Z,1.30
2023-03-02T03:39:15.223Z,1.37
2023-03-02T03:41:41.674Z,1.32
2023-03-02T03:44:08.392Z,1.34
2023-03-02T03:46:35.668Z,1.33
2023-03-02T03:49:03.514Z,1.42
2023-03-02T03:51:35.047Z,1.34
2023-03-02T03:54:08.004Z,1.34
2023-03-02T03:56:37.938Z,1.29
2023-03-02T03:59:07.828Z,1.31
2023-03-02T04:01:38.749Z,1.30
2023-03-02T04:04:06.983Z,1.36
2023-03-02T04:06:33.895Z,1.36
2023-03-02T04:09:04.645Z,1.37
2023-03-02T04:11:33.260Z,1.32
2023-03-02T04:13:59.717Z,1.38
2023-03-02T04:16:26.367Z,1.36
2023-03-02T04:18:52.893Z,1.33
2023-03-02T04:21:19.397Z,1.36
2023-03-02T04:23:45.927Z,1.35
2023-03-02T04:26:12.405Z,1.38
2023-03-02T04:28:39.033Z,1.42
2023-03-02T04:31:05.638Z,1.38
2023-03-02T04:33:32.128Z,1.34
2023-03-02T04:35:58.661Z,1.35
2023-03-02T04:38:29.327Z,1.30
2023-03-02T04:40:59.006Z,1.34
2023-03-02T04:43:25.780Z,1.33
2023-03-02T04:45:53.840Z,1.38
2023-03-02T04:48:21.167Z,1.39
2023-03-02T04:50:47.598Z,1.42
2023-03-02T04:53:14.410Z,1.42
2023-03-02T04:55:40.958Z,1.42
2023-03-02T04:58:07.867Z,1.47
2023-03-02T05:00:35.306Z,1.42
2023-03-02T05:03:03.250Z,1.47
2023-03-02T05:05:29.852Z,1.45
2023-03-02T05:07:58.368Z,1.48
2023-03-02T05:10:25.961Z,1.49
2023-03-02T05:12:58.626Z,1.41
2023-03-02T05:15:28.335Z,1.43
2023-03-02T05:17:55.195Z,1.37
2023-03-02T05:20:27.374Z,1.39
2023-03-02T05:22:55.694Z,1.41
2023-03-02T05:25:22.623Z,1.40
2023-03-02T05:27:49.448Z,1.40
2023-03-02T05:30:16.015Z,1.46
2023-03-02T05:32:42.566Z,1.37
2023-03-02T05:35:09.589Z,1.37
2023-03-02T05:37:36.090Z,1.34
2023-03-02T05:40:02.655Z,1.43
2023-03-02T05:42:29.475Z,1.43
2023-03-02T05:44:56.046Z,1.46
2023-03-02T05:47:23.592Z,1.36
2023-03-02T05:49:50.020Z,1.37
2023-03-02T05:52:16.467Z,1.34
2023-03-02T05:54:42.879Z,1.38
2023-03-02T05:57:09.326Z,1.37
2023-03-02T05:59:35.869Z,1.34
2023-03-02T06:02:02.545Z,1.36
2023-03-02T06:04:29.083Z,1.38
2023-03-02T06:06:55.592Z,1.37
2023-03-02T06:09:22.408Z,1.31
2023-03-02T06:11:48.963Z,1.35
2023-03-02T06:14:15.575Z,1.33
2023-03-02T06:16:42.240Z,1.33
2023-03-02T06:19:08.774Z,1.36
2023-03-02T06:21:35.416Z,1.35
2023-03-02T06:24:04.534Z,1.35
2023-03-02T06:26:31.463Z,1.41
2023-03-02T06:28:58.837Z,1.39
2023-03-02T06:31:25.530Z,1.40
2023-03-02T06:33:52.190Z,1.40
2023-03-02T06:36:18.977Z,1.43
2023-03-02T06:38:45.627Z,1.41
2023-03-02T06:41:12.067Z,1.48
2023-03-02T06:43:38.521Z,1.43
2023-03-02T06:46:05.311Z,1.48
2023-03-02T06:48:31.856Z,1.52
2023-03-02T06:50:58.486Z,1.50
2023-03-02T06:53:25.124Z,1.55
2023-03-02T06:55:51.678Z,1.55
2023-03-02T06:58:18.181Z,1.58
2023-03-02T07:00:44.672Z,1.63
2023-03-02T07:03:11.225Z,1.66
2023-03-02T07:05:37.814Z,1.65
2023-03-02T07:08:04.426Z,1.68
2023-03-02T07:10:30.997Z,1.66
2023-03-02T07:12:57.870Z,1.72
2023-03-02T07:15:24.779Z,1.82
2023-03-02T07:17:51.366Z,1.80
2023-03-02T07:20:18.632Z,1.82
2023-03-02T07:22:45.508Z,1.86
2023-03-02T07:25:12.565Z,1.89
2023-03-02T07:27:39.250Z,1.97
2023-03-02T07:30:06.849Z,2.01
2023-03-02T07:32:33.435Z,2.04
2023-03-02T07:35:00.034Z,2.11
2023-03-02T07:37:26.508Z,2.15
2023-03-02T07:39:53.012Z,2.21
2023-03-02T07:42:19.488Z,2.28
2023-03-02T07:44:45.953Z,2.31
2023-03-02T07:47:12.480Z,2.32
2023-03-02T07:49:39.297Z,2.38
2023-03-02T07:52:08.974Z,2.40
2023-03-02T07:54:35.508Z,2.40
2023-03-02T07:57:02.014Z,2.49
2023-03-02T07:59:29.257Z,2.46
2023-03-02T08:01:56.522Z,2.51
2023-03-02T08:04:23.800Z,2.55
2023-03-02T08:06:50.412Z,2.59
2023-03-02T08:09:17.208Z,2.62
2023-03-02T08:11:44.770Z,2.67
2023-03-02T08:14:11.233Z,2.72
2023-03-02T08:16:39.233Z,2.84
2023-03-02T08:19:06.237Z,2.86
2023-03-02T08:21:33.619Z,3.04
2023-03-02T08:24:00.356Z,3.08
2023-03-02T08:26:26.828Z,3.21
2023-03-02T08:28:53.297Z,3.29
2023-03-02T08:31:19.901Z,3.30
2023-03-02T08:33:46.487Z,3.39
2023-03-02T08:36:15.464Z,3.49
2023-03-02T08:38:42.076Z,3.61
2023-03-02T08:41:12.051Z,3.63
2023-03-02T08:43:38.744Z,3.76
2023-03-02T08:46:05.873Z,3.96
2023-03-02T08:48:32.411Z,3.96
2023-03-02T08:51:10.048Z,4.08
2023-03-02T08:53:38.822Z,4.23
2023-03-02T08:56:08.505Z,4.34
2023-03-02T08:58:34.935Z,4.38
2023-03-02T09:01:01.431Z,4.38
2023-03-02T09:03:27.874Z,4.47
2023-03-02T09:05:54.604Z,4.56
2023-03-02T09:08:21.114Z,4.72
2023-03-02T09:10:47.571Z,4.82
2023-03-02T09:13:14.186Z,4.91
2023-03-02T09:15:40.641Z,5.03
2023-03-02T09:18:07.116Z,5.12
2023-03-02T09:20:34.510Z,5.26
2023-03-02T09:23:01.021Z,5.21
2023-03-02T09:25:27.431Z,5.25
2023-03-02T09:27:53.871Z,5.35
2023-03-02T09:30:20.303Z,5.43
2023-03-02T09:32:48.962Z,5.40
2023-03-02T09:35:15.668Z,5.45
2023-03-02T09:37:44.521Z,5.55
2023-03-02T09:40:31.469Z,5.69
2023-03-02T09:43:08.839Z,5.70
2023-03-02T09:46:05.496Z,5.64
2023-03-02T09:48:38.794Z,5.78
2023-03-02T09:51:39.291Z,5.86
2023-03-02T09:54:10.815Z,5.94
2023-03-02T09:56:42.213Z,6.04
2023-03-02T09:59:17.569Z,5.99
2023-03-02T10:02:06.547Z,6.09
2023-03-02T10:04:39.434Z,6.15
2023-03-02T10:07:12.517Z,6.22
2023-03-02T10:09:39.930Z,6.36
2023-03-02T10:12:21.500Z,6.45
2023-03-02T10:14:55.279Z,6.49
2023-03-02T10:17:36.860Z,6.59
2023-03-02T10:20:16.435Z,6.67
2023-03-02T10:22:48.296Z,6.83
2023-03-02T10:25:23.234Z,6.87
2023-03-02T10:27:52.325Z,6.88
2023-03-02T10:30:29.811Z,6.94
2023-03-02T10:32:59.975Z,7.06
2023-03-02T10:35:27.611Z,7.17
2023-03-02T10:38:12.115Z,7.12
2023-03-02T10:40:43.072Z,7.12
2023-03-02T10:43:35.959Z,7.31
2023-03-02T10:46:05.096Z,7.50
2023-03-02T10:48:31.596Z,7.47
2023-03-02T10:50:59.365Z,7.48
2023-03-02T10:53:25.914Z,7.54
2023-03-02T10:55:53.670Z,7.52
2023-03-02T10:58:27.112Z,7.67
2023-03-02T11:01:02.879Z,7.68
2023-03-02T11:03:30.074Z,7.68
2023-03-02T11:05:57.531Z,7.83
2023-03-02T11:08:28.819Z,8.02
2023-03-02T11:11:01.455Z,8.11
2023-03-02T11:13:36.242Z,8.30
2023-03-02T11:16:18.030Z,8.21
2023-03-02T11:18:50.228Z,8.31
2023-03-02T11:21:35.754Z,8.39
2023-03-02T11:24:07.556Z,8.39
2023-03-02T11:26:48.043Z,8.34
2023-03-02T11:29:22.873Z,8.40
2023-03-02T11:31:50.739Z,8.41
2023-03-02T11:34:54.349Z,8.53
2023-03-02T11:37:23.878Z,8.76
2023-03-02T11:39:55.569Z,8.97
2023-03-02T11:42:35.244Z,8.79
2023-03-02T11:45:13.723Z,8.90
2023-03-02T11:47:44.305Z,8.99
2023-03-02T11:50:14.779Z,9.04
2023-03-02T11:53:10.299Z,9.15
2023-03-02T11:55:43.395Z,9.01
2023-03-02T11:58:17.663Z,9.23
2023-03-02T12:00:44.608Z,9.22
2023-03-02T12:03:17.230Z,9.25
2023-03-02T12:06:06.882Z,9.32
2023-03-02T12:08:35.381Z,9.50
2023-03-02T12:11:07.649Z,9.52
2023-03-02T12:13:40.146Z,9.45
2023-03-02T12:16:20.614Z,9.57
2023-03-02T12:18:48.652Z,9.65
2023-03-02T12:21:22.789Z,9.69
2023-03-02T12:23:49.182Z,9.77
2023-03-02T12:26:22.209Z,9.76
2023-03-02T12:29:07.979Z,9.74
2023-03-02T12:31:55.187Z,9.89
2023-03-02T12:34:21.660Z,9.92
2023-03-02T12:36:49.335Z,10.00
2023-03-02T12:39:53.450Z,10.00
2023-03-02T12:42:29.450Z,10.12
2023-03-02T12:45:41.898Z,10.17
2023-03-02T12:48:42.901Z,10.25
2023-03-02T12:51:22.512Z,10.27
2023-03-02T12:53:50.416Z,10.38
2023-03-02T12:56:24.826Z,10.41
2023-03-02T12:58:53.250Z,10.36
2023-03-02T13:01:25.456Z,10.45
2023-03-02T13:03:53.234Z,10.58
2023-03-02T13:06:21.052Z,10.68
2023-03-02T13:08:50.613Z,10.80
2023-03-02T13:11:46.920Z,10.81
2023-03-02T13:14:22.446Z,10.86
2023-03-02T13:17:02.725Z,10.93
2023-03-02T13:19:30.699Z,11.10
2023-03-02T13:21:58.429Z,11.12
2023-03-02T13:24:45.081Z,10.91
2023-03-02T13:27:30.861Z,11.02
2023-03-02T13:30:12.032Z,11.02
2023-03-02T13:32:40.925Z,11.01
2023-03-02T13:35:26.314Z,11.05
2023-03-02T13:37:58.846Z,11.13
2023-03-02T13:40:37.798Z,11.21
2023-03-02T13:43:08.623Z,11.22
2023-03-02T13:45:35.240Z,11.35
2023-03-02T13:48:15.360Z,11.44
2023-03-02T13:50:51.227Z,11.49
2023-03-02T13:53:17.708Z,11.57
2023-03-02T13:55:44.180Z,11.46
2023-03-02T13:58:16.300Z,11.40
2023-03-02T14:00:42.821Z,11.48
2023-03-02T14:03:28.584Z,11.38
2023-03-02T14:05:56.036Z,11.42
2023-03-02T14:08:22.729Z,11.60
2023-03-02T14:10:51.717Z,11.58
2023-03-02T14:13:42.853Z,11.54
2023-03-02T14:16:12.539Z,11.55
2023-03-02T14:18:46.175Z,11.55
2023-03-02T14:21:18.348Z,11.57
2023-03-02T14:23:45.806Z,11.61
2023-03-02T14:26:36.512Z,11.70
2023-03-02T14:29:26.574Z,11.77
2023-03-02T14:31:54.579Z,11.60
2023-03-02T14:34:21.165Z,11.71
2023-03-02T14:36:50.227Z,11.81
2023-03-02T14:39:23.496Z,11.64
2023-03-02T14:41:53.686Z,11.72
2023-03-02T14:44:20.882Z,11.77
2023-03-02T14:46:47.581Z,11.85
2023-03-02T14:49:14.208Z,11.90
2023-03-02T14:51:41.534Z,11.91
2023-03-02T14:54:11.732Z,11.81
2023-03-02T14:56:38.195Z,11.84
2023-03-02T14:59:04.650Z,11.92
2023-03-02T15:01:32.220Z,11.94
2023-03-02T15:03:58.831Z,11.88
2023-03-02T15:06:28.135Z,11.96
2023-03-02T15:08:59.203Z,12.02
2023-03-02T15:11:26.626Z,11.97
2023-03-02T15:13:53.672Z,11.91
2023-03-02T15:16:20.477Z,11.76
2023-03-02T15:18:50.846Z,11.85
2023-03-02T15:21:20.160Z,11.82
2023-03-02T15:23:46.650Z,11.89
2023-03-02T15:26:13.610Z,11.76
2023-03-02T15:28:40.255Z,11.73
2023-03-02T15:31:11.094Z,11.61
2023-03-02T15:33:37.755Z,11.54
2023-03-02T15:36:06.393Z,11.56
2023-03-02T15:38:34.097Z,11.45
2023-03-02T15:41:05.753Z,11.45
2023-03-02T15:43:33.142Z,11.31
2023-03-02T15:46:00.763Z,11.25
2023-03-02T15:48:27.914Z,11.27
2023-03-02T15:51:02.060Z,11.19
2023-03-02T15:53:29.581Z,11.13
2023-03-02T15:55:56.332Z,11.08
2023-03-02T15:58:23.061Z,11.02
2023-03-02T16:00:50.103Z,11.01
2023-03-02T16:03:17.158Z,10.94
2023-03-02T16:05:43.620Z,10.92
2023-03-02T16:08:10.093Z,10.90
2023-03-02T16:10:36.729Z,10.90
2023-03-02T16:13:06.504Z,10.86
2023-03-02T16:15:40.263Z,10.87
2023-03-02T16:18:10.940Z,10.71
2023-03-02T16:20:38.653Z,10.77
2023-03-02T16:23:07.580Z,10.71
2023-03-02T16:25:39.821Z,10.67
2023-03-02T16:28:07.182Z,10.61
2023-03-02T16:30:34.393Z,10.59
2023-03-02T16:33:03.088Z,10.53
2023-03-02T16:35:30.798Z,10.47
2023-03-02T16:37:57.603Z,10.44
2023-03-02T16:40:24.394Z,10.36
2023-03-02T16:42:53.786Z,10.41
2023-03-02T16:45:21.677Z,10.41
2023-03-02T16:47:48.234Z,10.36
2023-03-02T16:50:16.102Z,10.28
2023-03-02T16:52:43.438Z,10.16
2023-03-02T16:55:15.634Z,10.24
2023-03-02T16:57:42.491Z,10.21
2023-03-02T17:00:11.610Z,10.13
2023-03-02T17:02:38.303Z,10.11
2023-03-02T17:05:05.002Z,9.87
2023-03-02T17:07:31.478Z,9.95
2023-03-02T17:09:58.023Z,9.89
2023-03-02T17:12:24.445Z,9.86
2023-03-02T17:14:50.892Z,9.79
2023-03-02T17:17:17.342Z,9.69
2023-03-02T17:19:44.074Z,9.74
2023-03-02T17:22:10.562Z,9.66
2023-03-02T17:24:37.201Z,9.57
2023-03-02T17:27:05.411Z,9.53
2023-03-02T17:29:35.221Z,9.41
2023-03-02T17:32:01.733Z,9.35
2023-03-02T17:34:31.171Z,9.30
2023-03-02T17:36:59.877Z,9.24
2023-03-02T17:39:27.804Z,9.16
2023-03-02T17:41:54.579Z,9.09
2023-03-02T17:44:21.457Z,9.03
2023-03-02T17:46:47.898Z,8.97
2023-03-02T17:49:14.329Z,8.91
2023-03-02T17:51:40.851Z,8.85
2023-03-02T17:54:07.424Z,8.80
2023-03-02T17:56:34.268Z,8.70
2023-03-02T17:59:03.206Z,8.65
2023-03-02T18:01:29.950Z,8.58
2023-03-02T18:03:56.669Z,8.50
2023-03-02T18:06:23.548Z,8.33
2023-03-02T18:08:52.073Z,7.99
2023-03-02T18:11:21.079Z,7.95
2023-03-02T18:13:48.155Z,7.87
2023-03-02T18:16:14.830Z,7.86
2023-03-02T18:18:41.273Z,7.92
2023-03-02T18:21:07.803Z,7.65
2023-03-02T18:23:34.550Z,7.46
2023-03-02T18:26:01.014Z,7.60
2023-03-02T18:28:27.553Z,7.41
2023-03-02T18:30:54.111Z,7.47
2023-03-02T18:33:20.628Z,7.51
2023-03-02T18:35:47.068Z,7.55
2023-03-02T18:38:14.017Z,7.51
2023-03-02T18:40:40.547Z,7.52
2023-03-02T18:43:07.063Z,7.49
2023-03-02T18:45:33.803Z,7.29
2023-03-02T18:48:01.051Z,7.24
2023-03-02T18:50:28.109Z,7.18
2023-03-02T18:52:54.626Z,7.19
2023-03-02T18:55:23.446Z,7.02
2023-03-02T18:57:50.435Z,6.88
2023-03-02T19:00:20.036Z,6.93
2023-03-02T19:02:46.495Z,6.68
2023-03-02T19:05:12.923Z,6.68
2023-03-02T19:07:39.597Z,6.59
2023-03-02T19:10:06.478Z,6.61
2023-03-02T19:12:32.940Z,6.47
2023-03-02T19:14:59.555Z,6.44
2023-03-02T19:17:26.009Z,6.30
2023-03-02T19:19:52.618Z,6.18
2023-03-02T19:22:19.182Z,6.20
2023-03-02T19:24:46.738Z,6.20
2023-03-02T19:27:14.009Z,6.01
2023-03-02T19:29:41.208Z,5.92
2023-03-02T19:32:08.314Z,5.87
2023-03-02T19:34:34.818Z,5.72
2023-03-02T19:37:03.174Z,5.79
2023-03-02T19:39:29.772Z,5.65
2023-03-02T19:41:56.329Z,5.70
2023-03-02T19:44:25.646Z,5.57
2023-03-02T19:46:52.175Z,5.49
2023-03-02T19:49:18.724Z,5.55
2023-03-02T19:51:45.242Z,5.23
2023-03-02T19:54:11.742Z,5.05
2023-03-02T19:56:40.198Z,4.92
2023-03-02T19:59:07.860Z,5.11
2023-03-02T20:01:34.341Z,5.13
2023-03-02T20:04:01.027Z,4.90
2023-03-02T20:06:33.264Z,4.82
2023-03-02T20:09:02.327Z,4.72
2023-03-02T20:11:30.715Z,4.68
2023-03-02T20:14:02.180Z,4.58
2023-03-02T20:16:30.585Z,4.69
2023-03-02T20:18:57.999Z,4.79
2023-03-02T20:21:27.396Z,4.55
2023-03-02T20:23:54.344Z,4.45
2023-03-02T20:26:21.597Z,4.43
2023-03-02T20:28:48.845Z,4.45
2023-03-02T20:31:16.143Z,4.37
2023-03-02T20:33:46.472Z,4.31
2023-03-02T20:36:15.322Z,4.37
2023-03-02T20:38:49.226Z,4.36
2023-03-02T20:41:16.972Z,4.26
2023-03-02T20:43:43.541Z,4.26
2023-03-02T20:46:13.280Z,4.12
2023-03-02T20:48:39.802Z,3.94
2023-03-02T20:51:06.422Z,3.82
2023-03-02T20:53:33.639Z,4.04
2023-03-02T20:56:00.195Z,3.93
2023-03-02T20:58:26.850Z,3.83
2023-03-02T21:00:55.709Z,3.98
2023-03-02T21:03:22.566Z,3.82
2023-03-02T21:05:48.982Z,3.73
2023-03-02T21:08:15.416Z,3.70
2023-03-02T21:10:42.978Z,3.41
2023-03-02T21:13:10.560Z,3.40
2023-03-02T21:15:37.804Z,3.60
2023-03-02T21:18:04.459Z,3.52
2023-03-02T21:20:33.478Z,3.37
2023-03-02T21:22:59.879Z,3.58
2023-03-02T21:25:26.706Z,3.28
2023-03-02T21:27:53.218Z,3.29
2023-03-02T21:30:22.830Z,3.46
2023-03-02T21:32:49.741Z,3.27
2023-03-02T21:35:21.720Z,3.16
2023-03-02T21:37:50.186Z,3.14
2023-03-02T21:40:24.365Z,3.11
2023-03-02T21:42:51.493Z,3.02
2023-03-02T21:45:18.868Z,2.93
2023-03-02T21:47:45.524Z,3.04
2023-03-02T21:50:15.099Z,2.98
2023-03-02T21:52:41.548Z,2.86
2023-03-02T21:55:08.612Z,2.85
2023-03-02T21:57:35.665Z,2.92
2023-03-02T22:00:04.436Z,2.68
2023-03-02T22:02:31.974Z,2.69
2023-03-02T22:04:58.840Z,2.73
2023-03-02T22:07:25.297Z,2.66
2023-03-02T22:09:52.617Z,2.56
2023-03-02T22:12:20.570Z,2.55
2023-03-02T22:14:46.991Z,2.54
2023-03-02T22:17:20.024Z,2.41
2023-03-02T22:19:47.576Z,2.42
2023-03-02T22:22:23.846Z,2.37
2023-03-02T22:24:51.660Z,2.34
2023-03-02T22:27:36.127Z,2.34
2023-03-02T22:30:06.490Z,2.31
2023-03-02T22:32:37.101Z,2.26
2023-03-02T22:35:14.216Z,2.16
2023-03-02T22:37:40.671Z,2.36
2023-03-02T22:40:29.623Z,2.25
2023-03-02T22:43:11.379Z,2.21
2023-03-02T22:45:41.424Z,2.10
2023-03-02T22:48:16.434Z,2.03
2023-03-02T22:50:44.877Z,2.00
2023-03-02T22:53:21.190Z,1.98
2023-03-02T22:55:47.684Z,1.97
2023-03-02T22:58:43.513Z,2.03
2023-03-02T23:01:26.255Z,1.98
2023-03-02T23:04:20.237Z,1.87
2023-03-02T23:06:57.626Z,1.60
2023-03-02T23:09:29.200Z,1.62
2023-03-02T23:12:02.317Z,1.81
2023-03-02T23:14:53.082Z,1.67
2023-03-02T23:17:32.008Z,1.62
2023-03-02T23:19:58.502Z,1.62
2023-03-02T23:22:28.441Z,1.68
2023-03-02T23:24:55.770Z,1.69
2023-03-02T23:27:24.243Z,1.66
2023-03-02T23:29:52.788Z,1.81
2023-03-02T23:32:19.806Z,1.83
2023-03-02T23:34:46.462Z,1.74
2023-03-02T23:37:12.940Z,1.59
2023-03-02T23:39:39.571Z,1.78
2023-03-02T23:42:06.163Z,1.68
2023-03-02T23:44:32.589Z,1.71
2023-03-02T23:46:59.555Z,1.53
2023-03-02T23:49:26.005Z,1.42
2023-03-02T23:51:52.526Z,1.46
2023-03-02T23:54:19.076Z,1.46
2023-03-02T23:56:45.539Z,1.43
2023-03-02T23:59:11.986Z,1.37
